Time;durP1;ratioP1;P1;durP2;ratioP2;P2;SDS_P1;SDS_P2;PMS_P1;PMS_P2;Temp;Humidity;BMP_temperature;BMP_pressure;BME280_temperature;BME280_humidity;BME280_pressure;Samples;Min_cycle;Max_cycle;Signal;HPM_P1;HPM_P2
2023/10/01 00:00:08;;;;;;;10.02;3.97;;;;;;;18.95;36.30;94243.34;5083834;28;20019;-75
2023/10/01 00:02:33;;;;;;;9.20;4.43;;;;;;;18.95;36.51;94246.84;5086560;27;20039;-74
2023/10/01 00:04:59;;;;;;;5.88;4.00;;;;;;;18.87;36.79;94232.41;5084849;28;20097;-75
2023/10/01 00:07:25;;;;;;;10.57;6.22;;;;;;;18.94;36.15;94229.09;5088616;28;20396;-75
2023/10/01 00:09:50;;;;;;;5.30;4.40;;;;;;;19.00;36.04;94243.06;5084336;28;20182;-74
2023/10/01 00:12:16;;;;;;;13.02;4.15;;;;;;;19.02;36.04;94235.41;5086841;28;20038;-74
2023/10/01 00:14:42;;;;;;;7.32;3.75;;;;;;;18.89;36.94;94210.50;5081767;28;20122;-75
2023/10/01 00:17:08;;;;;;;10.55;4.18;;;;;;;18.94;36.11;94225.63;5084506;28;20040;-74
2023/10/01 00:19:33;;;;;;;5.75;4.10;;;;;;;18.92;36.34;94214.44;5086061;28;20467;-75
2023/10/01 00:22:00;;;;;;;5.88;3.95;;;;;;;18.95;35.84;94222.56;5086353;28;20032;-75
2023/10/01 00:24:26;;;;;;;8.02;4.30;;;;;;;18.96;36.49;94226.06;5086735;28;20023;-74
2023/10/01 00:26:52;;;;;;;9.57;4.03;;;;;;;18.94;36.71;94212.13;5084080;28;20035;-75
2023/10/01 00:29:18;;;;;;;11.85;4.25;;;;;;;19.00;36.92;94224.19;5091840;28;20077;-75
2023/10/01 00:31:45;;;;;;;6.22;3.40;;;;;;;18.91;35.77;94210.94;5080491;28;20040;-75
2023/10/01 00:34:12;;;;;;;6.63;4.85;;;;;;;19.01;35.91;94229.25;5087154;28;20186;-75
2023/10/01 00:36:37;;;;;;;8.10;3.88;;;;;;;19.03;36.12;94223.47;5085835;27;20024;-74
2023/10/01 00:39:03;;;;;;;7.20;4.28;;;;;;;19.00;35.99;94211.50;5086491;28;20543;-74
2023/10/01 00:41:28;;;;;;;4.82;4.00;;;;;;;19.09;36.53;94225.53;5086317;28;20032;-75
2023/10/01 00:44:00;;;;;;;8.27;4.70;;;;;;;19.07;36.92;94225.09;5083391;28;20574;-75
2023/10/01 00:46:27;;;;;;;8.05;4.20;;;;;;;19.03;36.81;94226.97;5083683;28;20044;-73
2023/10/01 00:48:54;;;;;;;6.88;3.95;;;;;;;18.81;36.17;94223.09;5081828;28;20121;-76
2023/10/01 00:51:20;;;;;;;6.55;4.47;;;;;;;18.88;35.81;94231.28;5083609;28;20028;-75
2023/10/01 00:53:46;;;;;;;8.57;4.43;;;;;;;18.87;36.17;94215.50;5084500;28;20536;-74
2023/10/01 00:56:13;;;;;;;7.75;3.80;;;;;;;18.95;36.13;94221.78;5084268;28;20047;-75
2023/10/01 00:58:39;;;;;;;7.72;3.75;;;;;;;18.78;36.12;94215.69;5085993;28;20085;-74
2023/10/01 01:01:08;;;;;;;7.40;3.72;;;;;;;18.78;36.67;94225.69;5084643;28;20035;-75
2023/10/01 01:03:36;;;;;;;6.75;3.92;;;;;;;18.73;36.00;94215.97;5085161;27;20032;-75
2023/10/01 01:08:33;;;;;;;8.88;4.75;;;;;;;18.67;35.64;94203.91;5085783;28;20507;-73
2023/10/01 01:11:03;;;;;;;5.78;3.95;;;;;;;18.67;36.00;94214.69;5083311;28;20455;-75
2023/10/01 01:13:30;;;;;;;8.50;3.92;;;;;;;18.61;35.75;94209.91;5086001;28;20032;-75
2023/10/01 01:15:57;;;;;;;5.03;4.47;;;;;;;18.54;35.79;94221.31;5084505;28;20084;-75
2023/10/01 01:18:27;;;;;;;8.45;4.10;;;;;;;18.42;36.37;94213.38;5086941;28;20279;-75
2023/10/01 01:21:05;;;;;;;8.95;4.35;;;;;;;18.36;36.54;94217.47;5083240;28;20074;-75
2023/10/01 01:23:31;;;;;;;8.30;4.05;;;;;;;18.24;36.27;94196.81;5084376;28;20036;-75
2023/10/01 01:25:57;;;;;;;5.75;4.35;;;;;;;18.32;36.25;94197.78;5085733;28;20518;-74
2023/10/01 01:28:30;;;;;;;5.35;4.80;;;;;;;18.33;36.33;94196.66;5085237;28;20059;-74
2023/10/01 01:30:59;;;;;;;6.28;4.20;;;;;;;18.06;36.78;94189.50;5086176;28;20070;-75
2023/10/01 01:33:31;;;;;;;7.10;4.03;;;;;;;18.20;36.62;94200.56;5085652;28;20053;-73
2023/10/01 01:35:59;;;;;;;5.97;3.72;;;;;;;18.14;36.79;94204.69;5086411;28;20170;-74
2023/10/01 01:38:26;;;;;;;4.90;4.00;;;;;;;18.21;36.68;94207.53;5085344;28;20031;-75
2023/10/01 01:40:52;;;;;;;8.95;4.15;;;;;;;18.12;37.00;94213.13;5083251;28;20042;-75
2023/10/01 01:43:30;;;;;;;6.45;4.70;;;;;;;18.17;36.75;94204.75;5092273;28;20063;-74
2023/10/01 01:46:00;;;;;;;6.53;4.43;;;;;;;18.14;36.88;94215.47;5088411;28;20031;-74
2023/10/01 01:51:02;;;;;;;6.90;4.35;;;;;;;17.94;37.02;94210.00;5088002;28;20024;-75
2023/10/01 01:53:34;;;;;;;7.53;4.68;;;;;;;18.06;37.16;94219.09;5085096;28;20036;-74
2023/10/01 01:56:04;;;;;;;7.82;4.65;;;;;;;18.04;37.39;94217.53;5083299;28;20059;-74
2023/10/01 01:58:37;;;;;;;6.50;4.40;;;;;;;17.87;37.45;94212.50;5084979;28;20064;-75
2023/10/01 02:01:17;;;;;;;11.00;4.28;;;;;;;17.94;37.34;94215.38;5085248;28;20038;-75
2023/10/01 02:03:50;;;;;;;6.25;4.18;;;;;;;17.96;37.48;94202.38;5084139;28;20043;-75
2023/10/01 02:06:26;;;;;;;5.50;4.47;;;;;;;18.04;37.29;94209.47;5086628;28;20152;-74
2023/10/01 02:08:54;;;;;;;7.55;4.32;;;;;;;18.07;37.08;94207.22;5086402;28;20048;-73
2023/10/01 02:11:23;;;;;;;9.10;3.80;;;;;;;18.24;37.04;94212.97;5096182;28;20040;-74
2023/10/01 02:13:59;;;;;;;8.07;5.00;;;;;;;18.15;37.34;94206.22;5085596;28;20032;-74
2023/10/01 02:19:11;;;;;;;5.70;4.38;;;;;;;18.18;37.04;94208.25;5088675;28;21010;-75
2023/10/01 02:21:42;;;;;;;6.63;4.07;;;;;;;18.01;37.04;94195.94;5089592;28;20114;-75
2023/10/01 02:24:13;;;;;;;6.30;4.75;;;;;;;18.00;36.88;94203.22;5089576;28;20082;-74
2023/10/01 02:26:40;;;;;;;7.45;3.85;;;;;;;18.03;37.18;94213.31;5087115;28;20495;-75
2023/10/01 02:29:06;;;;;;;6.63;4.32;;;;;;;18.13;37.19;94211.22;5087732;27;20124;-75
2023/10/01 02:31:39;;;;;;;11.57;5.15;;;;;;;18.16;37.03;94205.88;5086473;28;20060;-75
2023/10/01 02:34:08;;;;;;;9.73;4.30;;;;;;;18.17;37.03;94203.97;5086840;28;20074;-75
2023/10/01 02:36:42;;;;;;;10.30;5.00;;;;;;;18.23;37.06;94210.66;5086563;28;20059;-75
2023/10/01 02:39:19;;;;;;;13.77;4.28;;;;;;;18.12;37.05;94201.56;5093853;28;20617;-75
2023/10/01 02:42:09;;;;;;;8.88;4.50;;;;;;;18.02;37.00;94200.97;5087916;28;20036;-73
2023/10/01 02:44:38;;;;;;;6.70;4.55;;;;;;;18.02;37.18;94197.50;5086933;28;20032;-71
2023/10/01 02:47:18;;;;;;;9.05;4.60;;;;;;;18.13;37.35;94206.59;5087224;28;20035;-74
2023/10/01 02:49:52;;;;;;;7.05;4.63;;;;;;;17.99;36.95;94196.28;5088613;28;20154;-75
2023/10/01 02:52:44;;;;;;;7.70;4.15;;;;;;;17.76;37.48;94208.78;5085799;28;20059;-75
2023/10/01 02:55:18;;;;;;;8.45;4.60;;;;;;;17.63;37.70;94182.34;5086994;28;20129;-76
2023/10/01 02:57:44;;;;;;;7.88;4.28;;;;;;;17.77;37.55;94194.22;5093289;28;20114;-75
2023/10/01 03:02:49;;;;;;;7.32;4.60;;;;;;;17.88;37.18;94200.63;5088457;28;20032;-74
2023/10/01 03:05:36;;;;;;;10.73;4.82;;;;;;;17.87;37.41;94192.91;5087270;28;20028;-75
2023/10/01 03:08:04;;;;;;;6.63;5.38;;;;;;;17.76;37.06;94181.88;5088786;27;20403;-75
2023/10/01 03:10:31;;;;;;;6.18;4.47;;;;;;;17.84;37.12;94182.84;5086117;28;20119;-76
2023/10/01 03:13:00;;;;;;;11.02;4.35;;;;;;;17.88;36.92;94195.25;5084034;28;20080;-74
2023/10/01 03:15:35;;;;;;;8.63;4.53;;;;;;;17.80;37.08;94193.50;5084963;28;20541;-72
2023/10/01 03:18:08;;;;;;;;;;;;;;;17.77;37.10;94204.97;5089522;28;20032;-75
2023/10/01 03:23:27;;;;;;;7.15;4.80;;;;;;;17.71;37.00;94213.63;5086809;28;20064;-74
2023/10/01 03:29:19;;;;;;;7.40;4.57;;;;;;;17.60;37.45;94191.88;5086950;28;20521;-75
2023/10/01 03:31:22;;;;;;;8.90;5.03;;;;;;;17.59;37.33;94193.00;5079089;28;20401;-75
2023/10/01 03:33:53;;;;;;;6.32;4.18;;;;;;;17.70;36.96;94199.41;5087319;28;20047;-74
2023/10/01 03:36:32;;;;;;;6.47;4.70;;;;;;;17.86;36.75;94192.13;5087474;28;20024;-75
2023/10/01 03:39:08;;;;;;;8.73;4.28;;;;;;;17.95;36.75;94200.81;5086937;28;20093;-74
2023/10/01 03:41:52;;;;;;;9.05;5.00;;;;;;;17.50;37.10;94200.47;5088717;28;20055;-75
2023/10/01 03:44:40;;;;;;;7.03;4.87;;;;;;;17.43;37.62;94201.06;5088348;27;20071;-75
2023/10/01 03:47:04;;;;;;;9.52;4.78;;;;;;;17.64;37.08;94198.13;5086627;28;20432;-75
2023/10/01 03:49:33;;;;;;;10.57;4.90;;;;;;;17.85;37.49;94208.59;5085500;28;20097;-74
2023/10/01 03:51:59;;;;;;;10.57;4.63;;;;;;;17.92;37.54;94206.09;5088395;28;20032;-75
2023/10/01 03:57:15;;;;;;;8.48;5.57;;;;;;;18.22;36.57;94209.88;5084953;28;20066;-74
2023/10/01 03:59:51;;;;;;;8.40;3.88;;;;;;;18.21;36.85;94207.53;5087592;28;20068;-74
2023/10/01 04:05:46;;;;;;;6.63;5.40;;;;;;;18.30;37.16;94200.03;5054925;28;20107;-75
2023/10/01 04:08:16;;;;;;;7.07;4.95;;;;;;;18.40;36.91;94218.31;5086880;28;20108;-75
2023/10/01 04:10:43;;;;;;;5.50;4.68;;;;;;;18.39;37.17;94214.84;5085104;28;20036;-74
2023/10/01 04:13:12;;;;;;;6.90;5.05;;;;;;;18.42;37.35;94221.47;5087040;28;20035;-74
2023/10/01 04:15:43;;;;;;;7.07;5.05;;;;;;;18.35;37.46;94207.84;5085615;28;20016;-75
2023/10/01 04:18:09;;;;;;;6.18;4.75;;;;;;;18.40;37.77;94215.63;5088446;28;20032;-73
2023/10/01 04:20:37;;;;;;;9.70;5.22;;;;;;;18.31;37.32;94201.59;5084790;27;20518;-75
2023/10/01 04:23:06;;;;;;;7.55;6.05;;;;;;;18.44;37.50;94216.50;5087326;28;20028;-75
2023/10/01 04:25:38;;;;;;;7.32;4.97;;;;;;;18.45;37.06;94215.38;5084558;28;20031;-75
2023/10/01 04:28:08;;;;;;;6.25;4.90;;;;;;;18.41;36.83;94206.44;5084956;28;20036;-75
2023/10/01 04:30:37;;;;;;;12.10;5.15;;;;;;;18.38;36.49;94207.91;5085468;28;20579;-74
2023/10/01 04:33:17;;;;;;;7.43;5.40;;;;;;;18.35;37.03;94226.69;5081923;28;20024;-75
2023/10/01 04:35:55;;;;;;;6.88;5.60;;;;;;;18.35;37.04;94222.09;5085548;28;20028;-74
2023/10/01 04:38:22;;;;;;;9.07;5.40;;;;;;;18.18;37.43;94237.84;5084229;28;20553;-74
2023/10/01 04:40:49;;;;;;;7.03;4.63;;;;;;;18.23;37.42;94234.88;5083731;27;20024;-74
2023/10/01 04:43:20;;;;;;;8.48;5.45;;;;;;;18.20;37.36;94224.81;5084717;28;20080;-75
2023/10/01 04:45:52;;;;;;;10.93;5.68;;;;;;;18.20;37.58;94216.72;5082842;28;20024;-74
2023/10/01 04:48:24;;;;;;;11.68;5.72;;;;;;;18.27;37.47;94233.06;5088265;28;20043;-74
2023/10/01 04:50:55;;;;;;;9.45;5.18;;;;;;;18.34;37.64;94244.75;5083167;28;20496;-74
2023/10/01 04:53:22;;;;;;;10.32;5.40;;;;;;;18.29;37.53;94230.78;5085194;28;20039;-75
2023/10/01 04:56:00;;;;;;;15.32;5.07;;;;;;;18.35;37.65;94235.53;5083553;28;20122;-74
2023/10/01 04:58:29;;;;;;;10.35;5.55;;;;;;;18.31;37.61;94236.59;5087638;28;20032;-75
2023/10/01 05:00:56;;;;;;;8.48;5.40;;;;;;;18.38;38.15;94250.22;5084658;28;20527;-74
2023/10/01 05:03:38;;;;;;;8.07;4.95;;;;;;;18.21;37.74;94254.06;5086316;28;20165;-73
2023/10/01 05:06:07;;;;;;;7.60;6.07;;;;;;;18.21;38.16;94248.69;5086260;28;20526;-75
2023/10/01 05:08:38;;;;;;;7.55;5.07;;;;;;;18.33;38.44;94264.72;5069185;28;20068;-75
2023/10/01 05:11:11;;;;;;;10.10;4.90;;;;;;;18.38;38.35;94261.00;5084350;28;20056;-75
2023/10/01 05:13:41;;;;;;;10.38;5.93;;;;;;;18.27;38.18;94257.28;5083451;28;21060;-75
2023/10/01 05:16:13;;;;;;;8.13;6.13;;;;;;;18.32;38.19;94263.19;5085275;28;20036;-74
2023/10/01 05:18:45;;;;;;;16.92;5.35;;;;;;;18.40;38.36;94269.50;5083294;28;20051;-74
2023/10/01 05:21:14;;;;;;;8.95;6.35;;;;;;;18.36;38.63;94264.03;5082201;28;20024;-72
2023/10/01 05:23:41;;;;;;;7.40;5.50;;;;;;;18.44;38.52;94270.34;5087556;28;20035;-74
2023/10/01 05:26:08;;;;;;;14.10;5.07;;;;;;;18.38;38.47;94275.22;5085076;28;20096;-74
2023/10/01 05:28:36;;;;;;;9.00;5.97;;;;;;;18.32;38.27;94265.88;5083549;28;20507;-75
2023/10/01 05:31:14;;;;;;;8.80;5.35;;;;;;;18.40;38.78;94283.75;5085796;28;20080;-75
2023/10/01 05:33:45;;;;;;;11.70;5.30;;;;;;;18.44;38.96;94286.50;5085123;28;20032;-75
2023/10/01 05:36:16;;;;;;;7.28;5.40;;;;;;;18.43;38.78;94291.09;5084946;28;21343;-75
2023/10/01 05:38:44;;;;;;;10.10;5.85;;;;;;;18.34;38.67;94273.59;5085902;28;20768;-75
2023/10/01 05:41:13;;;;;;;8.18;5.55;;;;;;;18.48;38.60;94296.22;5082390;28;20640;-74
2023/10/01 05:43:43;;;;;;;9.40;5.72;;;;;;;18.46;38.82;94295.03;5087369;28;20024;-74
2023/10/01 05:46:10;;;;;;;9.23;6.10;;;;;;;18.47;38.61;94296.59;5089550;28;20050;-75
2023/10/01 05:48:37;;;;;;;8.93;5.32;;;;;;;18.45;38.92;94294.25;5091268;28;20024;-74
2023/10/01 05:51:06;;;;;;;7.60;5.03;;;;;;;18.39;38.97;94276.00;5093190;28;20686;-75
2023/10/01 05:53:32;;;;;;;5.60;4.88;;;;;;;18.43;38.82;94285.72;5092515;28;20586;-74
2023/10/01 05:56:10;;;;;;;8.40;5.00;;;;;;;18.51;39.17;94283.97;5088411;28;20032;-74
2023/10/01 05:58:36;;;;;;;8.18;5.60;;;;;;;18.61;38.77;94291.53;5090190;28;20036;-75
2023/10/01 06:01:05;;;;;;;9.85;5.60;;;;;;;18.35;39.38;94289.41;5089946;28;20039;-75
2023/10/01 06:03:34;;;;;;;10.20;5.82;;;;;;;18.45;39.52;94288.06;5088843;28;20053;-75
2023/10/01 06:06:08;;;;;;;15.82;5.80;;;;;;;18.52;39.66;94285.56;5091429;28;20024;-75
2023/10/01 06:08:45;;;;;;;9.77;6.07;;;;;;;18.18;40.15;94291.69;5089251;28;20430;-75
2023/10/01 06:11:15;;;;;;;9.43;5.78;;;;;;;17.81;40.56;94259.63;5088380;28;20103;-75
2023/10/01 06:13:49;;;;;;;12.27;6.70;;;;;;;18.01;40.45;94277.47;5087101;28;20376;-75
2023/10/01 06:16:28;;;;;;;9.52;6.03;;;;;;;18.10;40.73;94292.63;5089544;28;20423;-75
2023/10/01 06:18:58;;;;;;;11.70;7.03;;;;;;;18.12;40.80;94298.47;5089265;27;20127;-75
2023/10/01 06:21:31;;;;;;;14.52;7.28;;;;;;;18.23;41.33;94288.72;5087961;28;20055;-74
2023/10/01 06:23:59;;;;;;;10.38;6.70;;;;;;;18.36;40.99;94296.34;5087614;28;20056;-75
2023/10/01 06:26:42;;;;;;;8.68;6.22;;;;;;;18.40;40.91;94293.72;5087240;28;20035;-74
2023/10/01 06:29:10;;;;;;;10.23;6.15;;;;;;;18.24;41.04;94285.69;5087566;27;20075;-74
2023/10/01 06:32:00;;;;;;;10.05;6.60;;;;;;;18.30;41.01;94292.34;5085826;28;20503;-74
2023/10/01 06:34:32;;;;;;;14.63;6.57;;;;;;;18.20;40.85;94286.72;5088981;28;20444;-74
2023/10/01 06:37:01;;;;;;;8.48;6.63;;;;;;;18.43;41.18;94296.50;5100127;27;20074;-75
2023/10/01 06:39:30;;;;;;;10.25;5.72;;;;;;;18.39;41.18;94301.03;5087557;28;20020;-71
2023/10/01 06:42:18;;;;;;;14.63;6.53;;;;;;;18.54;41.18;94299.44;5066153;28;20093;-75
2023/10/01 06:44:43;;;;;;;14.45;7.43;;;;;;;18.23;41.03;94280.66;5064346;28;20043;-74
2023/10/01 06:47:14;;;;;;;25.70;7.75;;;;;;;18.43;41.31;94296.50;5070061;28;20036;-75
2023/10/01 06:49:56;;;;;;;23.08;6.95;;;;;;;18.66;41.25;94315.50;5065403;28;20492;-74
2023/10/01 06:52:27;;;;;;;13.55;8.25;;;;;;;18.44;41.13;94308.84;5066267;28;20041;-74
2023/10/01 06:54:57;;;;;;;8.07;7.28;;;;;;;18.07;41.75;94282.56;5072822;28;20073;-74
2023/10/01 06:57:38;;;;;;;14.95;8.32;;;;;;;18.29;42.11;94323.09;5066036;28;20111;-74
2023/10/01 07:00:12;;;;;;;14.75;7.32;;;;;;;18.30;42.41;94321.19;5087474;28;20039;-75
2023/10/01 07:02:40;;;;;;;;;;;;;;;18.34;42.01;94319.34;5089299;28;20040;-74
2023/10/01 07:05:08;;;;;;;10.77;7.70;;;;;;;18.21;42.68;94326.75;5087946;27;20002;-75
2023/10/01 07:07:35;;;;;;;11.85;7.72;;;;;;;18.11;42.74;94326.50;5085828;28;20040;-75
2023/10/01 07:10:03;;;;;;;10.95;8.93;;;;;;;18.03;43.69;94323.66;5086296;28;20035;-74
2023/10/01 07:12:29;;;;;;;13.60;9.07;;;;;;;17.96;44.11;94317.31;5086041;28;20047;-74
2023/10/01 07:14:54;;;;;;;14.70;8.13;;;;;;;17.71;44.37;94322.03;5086687;28;20380;-74
2023/10/01 07:17:24;;;;;;;12.05;7.72;;;;;;;17.57;45.00;94330.50;5087085;28;20028;-75
2023/10/01 07:19:59;;;;;;;13.73;9.48;;;;;;;17.84;45.19;94334.28;5085233;28;20051;-75
2023/10/01 07:22:32;;;;;;;20.33;9.18;;;;;;;17.99;44.66;94330.84;5092733;28;20538;-73
2023/10/01 07:25:05;;;;;;;14.18;8.98;;;;;;;18.02;45.12;94330.16;5086235;27;20028;-71
2023/10/01 07:27:30;;;;;;;19.40;9.43;;;;;;;18.12;45.32;94333.47;5085299;28;20031;-74
2023/10/01 07:29:57;;;;;;;18.00;10.35;;;;;;;18.18;45.38;94332.06;5085265;28;20060;-74
2023/10/01 07:32:26;;;;;;;15.88;9.30;;;;;;;17.91;46.05;94323.69;5087219;27;20035;-75
2023/10/01 07:34:58;;;;;;;15.20;10.32;;;;;;;18.06;45.85;94329.44;5087788;28;20048;-74
2023/10/01 07:37:29;;;;;;;14.70;10.20;;;;;;;18.05;45.68;94317.91;5087340;28;20040;-75
2023/10/01 07:40:16;;;;;;;16.50;9.85;;;;;;;17.85;45.92;94327.75;5086194;27;20059;-75
2023/10/01 07:42:49;;;;;;;11.93;9.82;;;;;;;17.91;46.62;94331.78;5088110;27;20027;-75
2023/10/01 07:45:16;;;;;;;16.08;10.27;;;;;;;17.91;46.37;94329.06;5087365;28;20016;-74
2023/10/01 07:47:43;;;;;;;19.33;10.35;;;;;;;17.93;45.79;94329.56;5085605;28;20403;-74
2023/10/01 07:50:12;;;;;;;19.08;9.85;;;;;;;17.90;46.30;94338.28;5084279;28;20043;-73
2023/10/01 07:52:40;;;;;;;22.92;10.45;;;;;;;17.98;46.18;94329.28;5083597;28;20035;-75
2023/10/01 07:58:16;;;;;;;14.02;9.75;;;;;;;17.86;46.80;94337.41;5080693;28;20119;-74
2023/10/01 08:00:41;;;;;;;19.50;10.30;;;;;;;17.81;46.97;94334.97;5084758;28;20483;-74
2023/10/01 08:05:49;;;;;;;19.00;9.82;;;;;;;17.57;47.66;94314.38;5085196;28;20028;-74
2023/10/01 08:08:35;;;;;;;17.60;10.63;;;;;;;17.76;48.05;94342.50;5086472;28;20036;-74
2023/10/01 08:11:58;;;;;;;25.20;10.90;;;;;;;17.86;47.59;94347.38;5087500;28;20522;-74
2023/10/01 08:13:55;;;;;;;22.13;11.60;;;;;;;17.91;47.87;94339.84;5083914;28;20043;-75
2023/10/01 08:16:23;;;;;;;17.52;10.85;;;;;;;18.02;47.63;94349.00;5087014;28;20177;-76
2023/10/01 08:18:51;;;;;;;17.05;10.52;;;;;;;18.06;47.56;94351.00;5085046;28;20041;-75
2023/10/01 08:21:17;;;;;;;14.90;10.32;;;;;;;17.99;47.54;94352.38;5085431;28;20030;-74
2023/10/01 08:23:48;;;;;;;21.13;10.65;;;;;;;18.03;48.22;94352.47;5086688;28;20043;-75
2023/10/01 08:28:59;;;;;;;18.73;11.32;;;;;;;18.27;47.41;94346.13;5055875;28;20330;-74
2023/10/01 08:34:22;;;;;;;17.58;10.18;;;;;;;18.35;46.76;94337.09;5055791;27;20184;-74
2023/10/01 08:36:55;;;;;;;14.38;9.73;;;;;;;18.43;47.02;94339.59;5079590;28;20028;-75
2023/10/01 08:39:33;;;;;;;14.88;9.43;;;;;;;18.34;47.41;94340.91;5082403;27;20554;-75
2023/10/01 08:42:08;;;;;;;17.75;10.85;;;;;;;18.44;47.12;94341.16;5078867;27;20583;-74
2023/10/01 08:44:49;;;;;;;13.50;9.32;;;;;;;18.52;47.12;94342.13;5079186;28;20047;-74
2023/10/01 08:47:30;;;;;;;15.27;11.23;;;;;;;18.57;47.33;94338.38;5078786;28;20048;-75
2023/10/01 08:53:43;;;;;;;20.27;9.88;;;;;;;18.65;47.19;94340.88;5073640;28;20035;-74
2023/10/01 08:56:15;;;;;;;16.27;9.55;;;;;;;18.78;46.65;94347.72;5064773;27;20823;-75
2023/10/01 09:01:31;;;;;;;16.65;10.00;;;;;;;18.77;45.63;94331.94;5064226;27;20082;-72
2023/10/01 09:04:29;;;;;;;14.98;9.70;;;;;;;18.82;45.65;94329.72;5072525;28;20054;-76
2023/10/01 09:07:03;;;;;;;19.20;10.25;;;;;;;18.85;46.36;94322.84;5076633;28;20077;-75
2023/10/01 09:09:51;;;;;;;14.02;9.82;;;;;;;18.97;46.49;94343.53;5073799;28;20048;-74
2023/10/01 09:12:18;;;;;;;18.23;9.45;;;;;;;19.03;46.00;94350.16;5072986;28;20079;-75
2023/10/01 09:14:46;;;;;;;13.75;10.23;;;;;;;18.82;46.25;94332.41;5070902;28;20047;-75
2023/10/01 09:17:40;;;;;;;14.18;9.10;;;;;;;18.94;46.55;94342.28;5075585;28;20685;-72
2023/10/01 09:20:09;;;;;;;15.35;9.32;;;;;;;19.08;45.78;94339.09;5079547;28;20035;-74
2023/10/01 09:25:25;;;;;;;13.10;8.70;;;;;;;19.29;44.82;94353.03;5056205;28;20048;-74
2023/10/01 09:28:03;;;;;;;;;;;;;;;19.24;45.16;94346.00;5072548;28;20050;-73
2023/10/01 09:30:34;;;;;;;14.90;9.85;;;;;;;19.30;45.44;94347.28;5079660;28;19931;-74
2023/10/01 09:33:14;;;;;;;13.77;9.60;;;;;;;19.18;45.25;94352.03;5074045;28;20130;-74
2023/10/01 09:36:03;;;;;;;16.52;8.82;;;;;;;19.05;45.55;94347.91;5065528;28;20039;-73
2023/10/01 09:38:30;;;;;;;15.00;9.32;;;;;;;19.17;45.72;94345.06;5066496;28;20123;-72
2023/10/01 09:41:00;;;;;;;16.73;9.32;;;;;;;19.29;45.27;94348.44;5082888;28;20083;-73
2023/10/01 09:43:58;;;;;;;14.57;9.60;;;;;;;19.34;43.94;94350.06;5071232;28;20752;-73
2023/10/01 09:46:35;;;;;;;12.35;8.18;;;;;;;19.42;43.90;94354.44;5074074;28;20495;-75
2023/10/01 09:49:30;;;;;;;15.30;7.90;;;;;;;19.52;43.69;94345.81;5060075;28;20055;-76
2023/10/01 09:52:09;;;;;;;18.33;8.43;;;;;;;19.58;43.86;94347.09;5059616;28;20054;-75
2023/10/01 09:54:43;;;;;;;14.10;8.10;;;;;;;19.66;42.54;94345.28;5074999;28;20035;-75
2023/10/01 09:57:10;;;;;;;19.75;9.15;;;;;;;19.78;42.71;94339.75;5083709;28;20118;-74
2023/10/01 09:59:49;;;;;;;14.05;8.38;;;;;;;19.75;42.12;94346.63;5077013;28;20532;-72
2023/10/01 10:02:27;;;;;;;12.73;7.90;;;;;;;19.69;41.63;94320.31;5076310;28;20044;-75
2023/10/01 10:04:54;;;;;;;16.45;7.75;;;;;;;19.78;40.96;94337.06;5078757;28;20358;-76
2023/10/01 10:07:24;;;;;;;13.65;8.10;;;;;;;19.86;42.04;94329.84;5071475;28;20044;-75
2023/10/01 10:09:54;;;;;;;14.48;8.27;;;;;;;19.99;41.74;94340.13;5080600;28;20047;-73
2023/10/01 10:12:36;;;;;;;13.48;9.13;;;;;;;20.01;41.77;94332.44;5074927;28;20267;-75
2023/10/01 10:15:02;;;;;;;17.20;8.10;;;;;;;20.08;41.85;94327.16;5078440;28;20035;-76
2023/10/01 10:18:15;;;;;;;11.20;7.95;;;;;;;20.06;40.94;94334.06;5074124;28;20035;-75
2023/10/01 10:21:03;;;;;;;11.02;7.20;;;;;;;20.09;40.49;94336.06;5073501;28;20048;-74
2023/10/01 10:23:52;;;;;;;16.30;9.57;;;;;;;20.16;41.41;94328.06;5074831;28;21081;-75
2023/10/01 10:27:07;;;;;;;16.80;8.43;;;;;;;20.20;41.21;94322.72;5076991;28;20478;-75
2023/10/01 10:29:56;;;;;;;11.13;7.60;;;;;;;20.13;40.49;94309.88;5077047;28;20057;-73
2023/10/01 10:32:30;;;;;;;11.80;8.15;;;;;;;20.23;40.86;94311.22;5077350;27;20044;-73
2023/10/01 10:35:15;;;;;;;13.07;8.00;;;;;;;20.30;40.51;94306.69;5066248;28;20417;-73
2023/10/01 10:37:53;;;;;;;10.70;7.53;;;;;;;20.34;40.52;94310.22;5079341;28;20039;-72
2023/10/01 10:42:59;;;;;;;13.60;7.70;;;;;;;20.60;39.12;94296.75;5069443;27;20035;-73
2023/10/01 10:45:43;;;;;;;10.07;7.38;;;;;;;20.58;39.95;94288.22;5092326;27;20074;-71
2023/10/01 10:48:14;;;;;;;12.38;7.53;;;;;;;20.73;40.32;94301.94;5078551;27;20117;-73
2023/10/01 10:50:50;;;;;;;10.02;7.32;;;;;;;20.78;39.53;94291.56;5053121;28;20043;-70
2023/10/01 10:53:39;;;;;;;14.48;8.00;;;;;;;20.72;39.51;94271.44;5069094;28;20744;-73
2023/10/01 10:56:13;;;;;;;11.82;8.65;;;;;;;20.85;39.13;94291.69;5064728;28;20553;-73
2023/10/01 10:59:05;;;;;;;14.02;8.13;;;;;;;20.90;39.67;94283.28;5069006;27;20056;-75
2023/10/01 11:01:44;;;;;;;13.63;8.02;;;;;;;20.95;39.39;94279.47;5074014;28;20663;-72
2023/10/01 11:04:13;;;;;;;12.02;7.75;;;;;;;21.10;39.77;94278.50;5075116;28;20158;-73
2023/10/01 11:06:42;;;;;;;10.48;7.97;;;;;;;21.24;39.31;94272.47;5079246;28;20051;-73
2023/10/01 11:09:27;;;;;;;14.68;7.85;;;;;;;21.25;39.03;94266.69;5081578;28;20043;-72
2023/10/01 11:12:05;;;;;;;11.68;7.65;;;;;;;21.30;39.09;94265.59;5075215;28;20127;-74
2023/10/01 11:14:37;;;;;;;16.05;8.73;;;;;;;21.35;39.08;94271.44;5075399;28;20178;-72
2023/10/01 11:17:07;;;;;;;13.10;9.15;;;;;;;21.45;39.58;94262.69;5080266;28;20093;-74
2023/10/01 11:19:37;;;;;;;13.63;8.93;;;;;;;21.28;39.28;94238.91;5082237;27;20116;-74
2023/10/01 11:22:05;;;;;;;10.60;8.70;;;;;;;21.54;38.52;94267.00;5076843;27;20039;-74
2023/10/01 11:24:43;;;;;;;15.27;8.85;;;;;;;21.50;38.20;94253.44;5077185;28;20487;-71
2023/10/01 11:27:44;;;;;;;15.27;9.13;;;;;;;21.54;39.11;94261.59;5070719;27;20044;-72
2023/10/01 11:30:19;;;;;;;11.05;8.50;;;;;;;21.56;38.40;94243.09;5055050;28;20846;-74
2023/10/01 11:35:37;;;;;;;14.70;8.48;;;;;;;21.76;38.58;94247.13;5058563;28;20081;-73
2023/10/01 11:38:20;;;;;;;16.38;9.13;;;;;;;21.67;38.48;94257.47;5054179;28;20048;-74
2023/10/01 11:44:16;;;;;;;16.42;8.50;;;;;;;21.25;39.18;94255.09;5057231;28;20129;-71
2023/10/01 11:49:39;;;;;;;12.07;8.93;;;;;;;20.95;40.37;94253.22;5038524;28;20208;-73
2023/10/01 11:52:25;;;;;;;17.60;9.32;;;;;;;21.02;40.70;94236.31;5056953;28;21023;-71
2023/10/01 11:55:19;;;;;;;12.88;8.13;;;;;;;21.20;39.77;94253.50;5061763;28;20133;-73
2023/10/01 11:57:51;;;;;;;13.00;8.27;;;;;;;21.32;40.12;94260.56;5067706;28;20046;-69
2023/10/01 12:01:04;;;;;;;14.02;8.85;;;;;;;21.44;40.10;94261.13;5076329;28;20113;-73
2023/10/01 12:03:10;;;;;;;14.27;8.43;;;;;;;21.49;40.56;94248.41;5058877;28;20051;-74
2023/10/01 12:05:47;;;;;;;12.88;8.18;;;;;;;21.65;39.12;94244.34;5074277;28;20484;-72
2023/10/01 12:08:18;;;;;;;16.70;8.63;;;;;;;21.64;38.36;94239.28;5079846;28;20110;-74
2023/10/01 12:10:44;;;;;;;12.35;8.10;;;;;;;21.63;37.92;94232.31;5072776;28;20441;-73
2023/10/01 12:13:13;;;;;;;15.75;7.88;;;;;;;21.74;38.15;94233.19;5076372;28;20551;-72
2023/10/01 12:15:52;;;;;;;14.95;8.90;;;;;;;21.74;37.72;94227.78;5079384;28;20517;-72
2023/10/01 12:18:44;;;;;;;12.80;8.15;;;;;;;21.70;37.80;94243.22;5109532;27;20195;-74
2023/10/01 12:21:25;;;;;;;13.65;8.18;;;;;;;21.63;38.28;94240.44;5074628;28;20076;-73
2023/10/01 12:23:52;;;;;;;11.27;7.90;;;;;;;21.52;37.87;94242.22;5082456;28;20028;-74
2023/10/01 12:29:11;;;;;;;15.82;8.63;;;;;;;21.42;38.35;94249.09;5077871;28;20044;-75
2023/10/01 12:31:45;;;;;;;11.18;7.57;;;;;;;21.24;38.30;94200.22;5072939;28;20054;-73
2023/10/01 12:34:17;;;;;;;14.02;8.65;;;;;;;21.43;38.63;94237.91;5079334;28;20058;-72
2023/10/01 12:36:44;;;;;;;14.48;8.55;;;;;;;21.48;38.63;94241.41;5075547;28;20073;-75
2023/10/01 12:42:04;;;;;;;12.48;8.52;;;;;;;21.54;39.11;94229.91;5083049;28;20073;-74
2023/10/01 12:47:09;;;;;;;13.13;8.70;;;;;;;21.52;39.44;94224.06;5084248;28;20442;-73
2023/10/01 12:49:38;;;;;;;11.80;9.38;;;;;;;21.58;39.85;94213.72;5080356;28;20036;-74
2023/10/01 12:52:08;;;;;;;15.60;8.45;;;;;;;21.70;39.63;94216.16;5080951;28;20149;-74
2023/10/01 12:54:37;;;;;;;13.10;8.55;;;;;;;21.70;39.24;94216.16;5084899;28;20106;-74
2023/10/01 12:57:10;;;;;;;12.95;7.95;;;;;;;21.81;39.24;94215.06;5084180;28;20472;-74